createdAt,value
2018-12-24T00:00:08.347Z,4.13
2018-12-24T00:02:59.745Z,4.93
2018-12-24T00:05:35.831Z,5.17
2018-12-24T00:08:09.672Z,4.90
2018-12-24T00:10:44.345Z,5.27
2018-12-24T00:13:15.922Z,4.83
2018-12-24T00:15:51.889Z,5.30
2018-12-24T00:18:42.065Z,5.37
2018-12-24T00:21:33.222Z,5.73
2018-12-24T00:24:06.685Z,5.97
2018-12-24T00:26:41.659Z,5.60
2018-12-24T00:29:12.787Z,6.20
2018-12-24T00:31:49.053Z,6.03
2018-12-24T00:34:21.385Z,6.07
2018-12-24T00:36:57.004Z,6.70
2018-12-24T00:39:35.911Z,6.27
2018-12-24T00:42:15.657Z,6.77
2018-12-24T00:44:50.204Z,5.77
2018-12-24T00:47:26.850Z,7.73
2018-12-24T00:50:05.130Z,5.97
2018-12-24T00:52:40.300Z,6.10
2018-12-24T00:55:17.890Z,6.70
2018-12-24T00:57:54.315Z,6.33
2018-12-24T01:00:27.653Z,6.17
2018-12-24T01:03:00.440Z,6.20
2018-12-24T01:05:34.510Z,6.40
2018-12-24T01:08:06.109Z,5.93
2018-12-24T01:10:38.431Z,6.13
2018-12-24T01:13:28.730Z,6.00
2018-12-24T01:15:59.708Z,5.80
2018-12-24T01:18:41.294Z,5.80
2018-12-24T01:21:16.610Z,5.13
2018-12-24T01:23:53.058Z,6.10
2018-12-24T01:26:28.255Z,5.97
2018-12-24T01:29:05.280Z,6.40
2018-12-24T01:31:38.849Z,4.93
2018-12-24T01:34:11.751Z,5.73
2018-12-24T01:36:44.211Z,5.60
2018-12-24T01:39:35.918Z,5.37
2018-12-24T01:42:09.173Z,5.37
2018-12-24T01:44:45.079Z,6.30
2018-12-24T01:47:20.063Z,4.23
2018-12-24T01:49:53.087Z,4.57
2018-12-24T01:52:26.189Z,4.90
2018-12-24T01:55:00.938Z,4.37
2018-12-24T01:57:35.163Z,4.30
2018-12-24T02:00:06.344Z,4.70
2018-12-24T02:02:38.497Z,4.60
2018-12-24T02:05:13.357Z,4.00
2018-12-24T02:07:45.229Z,5.17
2018-12-24T02:10:18.044Z,4.43
2018-12-24T02:12:54.374Z,3.70
2018-12-24T02:15:29.451Z,4.97
2018-12-24T02:18:03.320Z,4.50
2018-12-24T02:20:35.893Z,4.43
2018-12-24T02:23:10.482Z,5.73
2018-12-24T02:25:48.219Z,5.30
2018-12-24T02:28:21.384Z,5.60
2018-12-24T02:30:57.329Z,6.13
2018-12-24T02:33:31.331Z,5.60
2018-12-24T02:36:04.097Z,5.33
2018-12-24T02:38:38.687Z,5.30
2018-12-24T02:41:11.645Z,5.40
2018-12-24T02:43:45.222Z,4.77
2018-12-24T02:46:18.267Z,5.73
2018-12-24T02:48:50.838Z,4.90
2018-12-24T02:51:23.079Z,5.60
2018-12-24T02:53:56.437Z,5.83
2018-12-24T02:56:31.754Z,4.87
2018-12-24T02:59:03.709Z,5.20
2018-12-24T03:01:39.325Z,4.50
2018-12-24T03:04:11.529Z,4.30
2018-12-24T03:06:43.563Z,4.13
2018-12-24T03:09:15.280Z,4.57
2018-12-24T03:11:49.114Z,4.20
2018-12-24T03:14:23.762Z,4.70
2018-12-24T03:16:56.695Z,4.20
2018-12-24T03:19:28.599Z,4.50
2018-12-24T03:22:00.579Z,5.33
2018-12-24T03:24:34.379Z,5.73
2018-12-24T03:27:09.412Z,6.00
2018-12-24T03:29:41.481Z,6.10
2018-12-24T03:32:12.821Z,5.67
2018-12-24T03:34:48.075Z,6.30
2018-12-24T03:37:21.078Z,5.60
2018-12-24T03:39:53.843Z,5.63
2018-12-24T03:42:24.849Z,5.43
2018-12-24T03:44:57.584Z,5.80
2018-12-24T03:47:28.583Z,5.33
2018-12-24T03:49:59.519Z,6.50
2018-12-24T03:52:32.414Z,5.97
2018-12-24T03:55:04.820Z,5.87
2018-12-24T03:57:37.259Z,5.30
2018-12-24T04:00:29.117Z,6.10
2018-12-24T04:03:06.397Z,5.30
2018-12-24T04:05:42.731Z,5.20
2018-12-24T04:08:15.963Z,5.43
2018-12-24T04:10:48.503Z,5.70
2018-12-24T04:13:22.762Z,5.50
2018-12-24T04:16:03.976Z,4.83
2018-12-24T04:18:34.974Z,4.87
2018-12-24T04:21:06.323Z,4.40
2018-12-24T04:23:48.595Z,4.90
2018-12-24T04:26:32.313Z,4.40
2018-12-24T04:29:04.908Z,5.20
2018-12-24T04:31:37.968Z,5.00
2018-12-24T04:34:10.018Z,4.70
2018-12-24T04:36:44.256Z,3.30
2018-12-24T04:39:16.158Z,2.80
2018-12-24T04:41:50.589Z,1.80
2018-12-24T04:44:42.886Z,1.30
2018-12-24T04:47:14.702Z,1.03
2018-12-24T04:49:48.143Z,1.07
2018-12-24T04:52:22.622Z,0.70
2018-12-24T04:54:57.785Z,0.60
2018-12-24T04:57:31.899Z,0.77
2018-12-24T05:00:22.062Z,0.30
2018-12-24T05:02:56.289Z,0.50
2018-12-24T05:05:45.304Z,0.50
2018-12-24T05:08:20.259Z,0.30
2018-12-24T05:10:53.537Z,0.40
2018-12-24T05:13:24.963Z,0.50
2018-12-24T05:15:58.649Z,0.60
2018-12-24T05:18:33.323Z,0.53
2018-12-24T05:21:06.159Z,0.50
2018-12-24T05:23:41.187Z,0.60
2018-12-24T05:26:15.131Z,0.70
2018-12-24T05:28:48.091Z,0.67
2018-12-24T05:31:21.842Z,1.00
2018-12-24T05:34:06.764Z,1.00
2018-12-24T05:36:41.456Z,1.13
2018-12-24T05:39:18.163Z,1.00
2018-12-24T05:41:52.428Z,1.17
2018-12-24T05:44:25.839Z,0.80
2018-12-24T05:46:59.263Z,0.83
2018-12-24T05:49:30.349Z,0.70
2018-12-24T05:52:09.824Z,1.00
2018-12-24T05:54:44.142Z,0.90
2018-12-24T05:57:33.552Z,0.70
2018-12-24T06:00:08.669Z,0.73
2018-12-24T06:02:42.649Z,0.70
2018-12-24T06:05:18.199Z,0.77
2018-12-24T06:07:50.083Z,0.60
2018-12-24T06:10:23.065Z,0.70
2018-12-24T06:12:56.324Z,0.50
2018-12-24T06:15:30.245Z,0.70
2018-12-24T06:18:03.835Z,0.60
2018-12-24T06:20:39.323Z,0.50
2018-12-24T06:23:11.333Z,0.60
2018-12-24T06:25:46.009Z,0.60
2018-12-24T06:28:18.981Z,0.47
2018-12-24T06:30:53.726Z,0.50
2018-12-24T06:33:26.276Z,0.50
2018-12-24T06:36:00.223Z,0.40
2018-12-24T06:38:42.362Z,0.60
2018-12-24T06:41:13.545Z,0.70
2018-12-24T06:43:46.999Z,0.50
2018-12-24T06:46:19.879Z,0.67
2018-12-24T06:48:54.470Z,0.53
2018-12-24T06:51:31.360Z,0.90
2018-12-24T06:54:05.200Z,0.80
2018-12-24T06:56:37.398Z,0.90
2018-12-24T06:59:26.577Z,1.30
2018-12-24T07:02:05.439Z,1.00
2018-12-24T07:04:39.287Z,0.60
2018-12-24T07:07:12.496Z,0.77
2018-12-24T07:09:45.709Z,0.50
2018-12-24T07:12:19.426Z,0.60
2018-12-24T07:14:53.199Z,0.73
2018-12-24T07:17:28.128Z,0.50
2018-12-24T07:19:59.465Z,0.70
2018-12-24T07:22:33.347Z,0.50
2018-12-24T07:25:06.599Z,0.80
2018-12-24T07:27:41.682Z,0.50
2018-12-24T07:30:14.485Z,0.50
2018-12-24T07:32:47.805Z,0.60
2018-12-24T07:35:23.553Z,0.57
2018-12-24T07:37:57.677Z,0.60
2018-12-24T07:40:31.793Z,0.43
2018-12-24T07:43:07.253Z,0.60
2018-12-24T07:45:44.146Z,1.03
2018-12-24T07:48:34.661Z,0.50
2018-12-24T07:51:09.366Z,2.67
2018-12-24T07:53:45.813Z,0.70
2018-12-24T07:56:29.578Z,0.70
2018-12-24T07:59:03.992Z,0.80
2018-12-24T08:01:35.943Z,0.90
2018-12-24T08:04:07.029Z,1.13
2018-12-24T08:06:40.788Z,0.93
2018-12-24T08:09:14.271Z,0.73
2018-12-24T08:11:46.509Z,0.77
2018-12-24T08:14:21.393Z,1.30
2018-12-24T08:16:54.484Z,1.00
2018-12-24T08:19:45.165Z,1.00
2018-12-24T08:22:16.738Z,1.10
2018-12-24T08:24:50.573Z,1.10
2018-12-24T08:27:25.973Z,1.20
2018-12-24T08:30:06.487Z,1.30
2018-12-24T08:32:39.618Z,1.20
2018-12-24T08:35:15.310Z,1.00
2018-12-24T08:37:49.441Z,1.23
2018-12-24T08:40:22.887Z,1.03
2018-12-24T08:42:55.748Z,0.90
2018-12-24T08:45:29.709Z,1.23
2018-12-24T08:48:19.159Z,1.07
2018-12-24T08:50:53.534Z,1.23
2018-12-24T08:53:26.906Z,1.00
2018-12-24T08:56:08.806Z,0.77
2018-12-24T08:58:41.535Z,0.80
2018-12-24T09:01:14.613Z,1.43
2018-12-24T09:03:47.342Z,3.10
2018-12-24T09:06:39.122Z,1.00
2018-12-24T09:09:14.999Z,1.10
2018-12-24T09:11:50.706Z,0.97
2018-12-24T09:14:26.324Z,0.97
2018-12-24T09:17:02.440Z,1.00
2018-12-24T09:19:41.309Z,0.73
2018-12-24T09:22:12.571Z,1.00
2018-12-24T09:24:44.721Z,1.13
2018-12-24T09:27:19.342Z,0.90
2018-12-24T09:29:53.657Z,0.97
2018-12-24T09:32:43.097Z,1.10
2018-12-24T09:35:16.190Z,1.00
2018-12-24T09:37:51.500Z,0.70
2018-12-24T09:40:23.426Z,1.37
2018-12-24T09:42:56.990Z,1.20
2018-12-24T09:45:30.333Z,1.40
2018-12-24T09:48:08.435Z,1.13
2018-12-24T09:50:58.105Z,1.33
2018-12-24T09:53:30.743Z,1.40
2018-12-24T09:56:04.721Z,0.90
2018-12-24T09:59:08.061Z,1.47
2018-12-24T10:01:45.173Z,1.20
2018-12-24T10:04:39.894Z,1.20
2018-12-24T10:07:40.204Z,0.90
2018-12-24T10:10:13.529Z,1.00
2018-12-24T10:12:48.361Z,1.03
2018-12-24T10:15:23.894Z,1.20
2018-12-24T10:17:57.936Z,1.13
2018-12-24T10:20:47.356Z,0.93
2018-12-24T10:23:39.465Z,1.47
2018-12-24T10:26:13.990Z,1.20
2018-12-24T10:28:47.141Z,1.40
2018-12-24T10:31:18.432Z,1.47
2018-12-24T10:33:54.712Z,1.30
2018-12-24T10:36:33.651Z,1.40
2018-12-24T10:39:10.303Z,1.33
2018-12-24T10:41:54.038Z,1.30
2018-12-24T10:44:30.656Z,1.03
2018-12-24T10:47:04.183Z,1.10
2018-12-24T10:49:43.372Z,1.00
2018-12-24T10:52:15.045Z,1.23
2018-12-24T10:54:47.191Z,0.83
2018-12-24T10:57:19.384Z,1.30
2018-12-24T10:59:52.716Z,1.10
2018-12-24T11:02:23.992Z,1.00
2018-12-24T11:04:57.551Z,0.90
2018-12-24T11:07:32.948Z,1.30
2018-12-24T11:10:05.416Z,4.00
2018-12-24T11:12:40.841Z,0.93
2018-12-24T11:15:15.965Z,1.20
2018-12-24T11:17:52.238Z,0.90
2018-12-24T11:20:41.884Z,1.07
2018-12-24T11:23:13.968Z,0.80
2018-12-24T11:25:44.916Z,1.23
2018-12-24T11:28:17.470Z,1.10
2018-12-24T11:30:52.428Z,1.30
2018-12-24T11:33:30.648Z,1.10
2018-12-24T11:36:05.393Z,1.30
2018-12-24T11:38:42.838Z,1.10
2018-12-24T11:41:15.307Z,1.40
2018-12-24T11:43:52.339Z,0.97
2018-12-24T11:46:25.549Z,1.17
2018-12-24T11:48:56.525Z,1.10
2018-12-24T11:51:27.616Z,1.30
2018-12-24T11:54:06.338Z,1.60
2018-12-24T11:56:38.881Z,1.37
2018-12-24T11:59:15.856Z,1.00
2018-12-24T12:01:49.280Z,1.30
2018-12-24T12:04:26.402Z,1.50
2018-12-24T12:07:01.237Z,1.30
2018-12-24T12:09:33.891Z,1.60
2018-12-24T12:12:10.255Z,4.50
2018-12-24T12:14:45.976Z,1.27
2018-12-24T12:17:28.009Z,1.50
2018-12-24T12:20:00.570Z,1.30
2018-12-24T12:22:50.458Z,1.57
2018-12-24T12:25:42.525Z,1.40
2018-12-24T12:28:17.346Z,1.40
2018-12-24T12:30:52.216Z,1.63
2018-12-24T12:33:36.931Z,1.30
2018-12-24T12:36:14.080Z,1.20
2018-12-24T12:39:03.019Z,2.00
2018-12-24T12:41:35.212Z,2.20
2018-12-24T12:44:06.142Z,1.43
2018-12-24T12:46:39.720Z,1.37
2018-12-24T12:49:17.586Z,1.87
2018-12-24T12:51:50.971Z,1.97
2018-12-24T12:54:35.173Z,1.47
2018-12-24T12:57:06.754Z,1.57
2018-12-24T12:59:56.177Z,1.47
2018-12-24T13:02:32.973Z,1.50
2018-12-24T13:05:07.092Z,1.30
2018-12-24T13:07:56.047Z,1.50
2018-12-24T13:10:35.371Z,1.50
2018-12-24T13:13:08.112Z,1.90
2018-12-24T13:15:39.548Z,1.10
2018-12-24T13:18:11.171Z,1.87
2018-12-24T13:20:45.109Z,1.20
2018-12-24T13:23:16.106Z,1.67
2018-12-24T13:25:48.410Z,1.23
2018-12-24T13:28:23.598Z,1.63
2018-12-24T13:30:57.874Z,1.40
2018-12-24T13:33:28.881Z,1.50
2018-12-24T13:36:00.980Z,4.50
2018-12-24T13:38:35.097Z,2.80
2018-12-24T13:41:06.662Z,1.57
2018-12-24T13:43:38.249Z,1.70
2018-12-24T13:46:14.477Z,1.23
2018-12-24T13:48:49.909Z,1.77
2018-12-24T13:51:23.316Z,2.07
2018-12-24T13:53:55.351Z,1.63
2018-12-24T13:56:27.436Z,1.90
2018-12-24T13:59:02.933Z,1.63
2018-12-24T14:01:35.702Z,2.13
2018-12-24T14:04:06.690Z,1.50
2018-12-24T14:06:40.202Z,3.37
2018-12-24T14:09:13.255Z,2.07
2018-12-24T14:11:46.091Z,2.50
2018-12-24T14:14:34.988Z,1.80
2018-12-24T14:17:06.676Z,2.37
2018-12-24T14:19:43.550Z,2.10
2018-12-24T14:22:21.917Z,2.50
2018-12-24T14:24:56.068Z,1.87
2018-12-24T14:27:33.272Z,2.43
2018-12-24T14:30:12.468Z,1.90
2018-12-24T14:32:45.971Z,1.80
2018-12-24T14:35:19.174Z,1.90
2018-12-24T14:37:52.189Z,2.57
2018-12-24T14:40:23.837Z,2.03
2018-12-24T14:44:06.361Z,2.40
2018-12-24T14:46:41.122Z,1.77
2018-12-24T14:49:15.291Z,2.03
2018-12-24T14:51:50.085Z,1.83
2018-12-24T14:54:27.131Z,1.73
2018-12-24T14:56:58.328Z,2.07
2018-12-24T14:59:33.330Z,3.53
2018-12-24T15:02:05.447Z,2.03
2018-12-24T15:04:41.405Z,2.03
2018-12-24T15:07:30.923Z,1.90
2018-12-24T15:10:09.869Z,2.20
2018-12-24T15:12:41.928Z,2.07
2018-12-24T15:15:16.548Z,1.87
2018-12-24T15:17:48.848Z,1.70
2018-12-24T15:20:30.502Z,1.50
2018-12-24T15:23:02.300Z,2.23
2018-12-24T15:25:34.242Z,1.70
2018-12-24T15:28:06.578Z,1.90
2018-12-24T15:30:38.146Z,2.40
2018-12-24T15:33:23.901Z,2.37
2018-12-24T15:35:55.358Z,2.70
2018-12-24T15:38:28.952Z,2.17
2018-12-24T15:41:02.761Z,1.90
2018-12-24T15:43:35.105Z,2.20
2018-12-24T15:46:17.314Z,2.20
2018-12-24T15:48:50.550Z,2.40
2018-12-24T15:51:24.500Z,2.20
2018-12-24T15:53:54.924Z,2.00
2018-12-24T15:56:26.903Z,2.67
2018-12-24T15:58:59.362Z,2.50
2018-12-24T16:01:29.925Z,2.03
2018-12-24T16:04:00.718Z,2.80
2018-12-24T16:06:31.119Z,2.67
2018-12-24T16:09:02.062Z,2.53
2018-12-24T16:11:32.928Z,2.70
2018-12-24T16:14:03.628Z,2.90
2018-12-24T16:16:34.104Z,2.43
2018-12-24T16:19:05.010Z,2.70
2018-12-24T16:21:40.046Z,3.10
2018-12-24T16:24:21.598Z,3.27
2018-12-24T16:26:52.243Z,3.60
2018-12-24T16:29:23.302Z,2.57
2018-12-24T16:32:04.310Z,3.50
2018-12-24T16:34:44.027Z,2.70
2018-12-24T16:37:17.559Z,2.53
2018-12-24T16:39:53.225Z,3.50
2018-12-24T16:42:23.766Z,2.97
2018-12-24T16:44:55.809Z,5.30
2018-12-24T16:47:26.610Z,3.80
2018-12-24T16:49:58.506Z,3.20
2018-12-24T16:52:29.010Z,2.90
2018-12-24T16:54:59.462Z,3.47
2018-12-24T16:57:30.515Z,3.10
2018-12-24T17:00:04.702Z,3.30
2018-12-24T17:02:41.142Z,2.77
2018-12-24T17:05:13.954Z,3.03
2018-12-24T17:07:47.083Z,2.87
2018-12-24T17:10:17.599Z,3.40
2018-12-24T17:12:48.151Z,3.20
2018-12-24T17:15:18.736Z,2.90
2018-12-24T17:17:52.593Z,3.03
2018-12-24T17:20:27.228Z,3.50
2018-12-24T17:23:05.864Z,3.70
2018-12-24T17:25:36.441Z,3.37
2018-12-24T17:28:06.869Z,4.50
2018-12-24T17:30:39.809Z,3.17
2018-12-24T17:33:13.239Z,3.40
2018-12-24T17:35:48.114Z,3.10
2018-12-24T17:38:22.715Z,3.30
2018-12-24T17:40:55.270Z,3.37
2018-12-24T17:43:27.008Z,3.23
2018-12-24T17:46:01.452Z,3.17
2018-12-24T17:48:34.494Z,5.10
2018-12-24T17:51:06.909Z,6.07
2018-12-24T17:53:39.958Z,3.63
2018-12-24T17:56:12.216Z,3.70
2018-12-24T17:58:44.549Z,3.33
2018-12-24T18:01:15.477Z,3.53
2018-12-24T18:03:53.383Z,4.10
2018-12-24T18:06:25.676Z,2.83
2018-12-24T18:09:03.693Z,3.17
2018-12-24T18:11:39.708Z,6.90
2018-12-24T18:14:29.646Z,3.97
2018-12-24T18:17:02.672Z,3.70
2018-12-24T18:19:34.481Z,3.10
2018-12-24T18:22:07.361Z,3.90
2018-12-24T18:24:42.154Z,3.20
2018-12-24T18:27:14.748Z,3.10
2018-12-24T18:29:51.067Z,3.07
2018-12-24T18:32:22.743Z,3.30
2018-12-24T18:34:53.457Z,3.27
2018-12-24T18:37:23.936Z,3.33
2018-12-24T18:39:54.785Z,4.10
2018-12-24T18:42:25.616Z,3.20
2018-12-24T18:44:56.463Z,3.50
2018-12-24T18:47:33.205Z,3.17
2018-12-24T18:50:07.837Z,3.43
2018-12-24T18:52:44.605Z,3.03
2018-12-24T18:55:33.591Z,3.37
2018-12-24T18:58:23.809Z,3.77
2018-12-24T19:00:57.915Z,3.17
2018-12-24T19:03:29.803Z,3.47
2018-12-24T19:06:04.086Z,3.90
2018-12-24T19:08:38.462Z,3.37
2018-12-24T19:11:11.382Z,3.97
2018-12-24T19:13:44.084Z,3.63
2018-12-24T19:16:33.314Z,3.20
2018-12-24T19:19:05.283Z,3.30
2018-12-24T19:21:43.718Z,3.37
2018-12-24T19:24:11.025Z,3.60
2018-12-24T19:26:44.965Z,4.90
2018-12-24T19:29:22.921Z,4.73
2018-12-24T19:31:54.415Z,5.10
2018-12-24T19:34:29.552Z,4.53
2018-12-24T19:37:01.658Z,3.70
2018-12-24T19:39:34.098Z,3.40
2018-12-24T19:42:05.096Z,3.60
2018-12-24T19:44:42.276Z,3.83
2018-12-24T19:47:14.604Z,3.73
2018-12-24T19:49:46.262Z,3.60
2018-12-24T19:52:17.408Z,3.63
2018-12-24T19:55:06.628Z,3.10
2018-12-24T19:57:40.280Z,3.00
2018-12-24T20:00:13.080Z,2.50
2018-12-24T20:02:44.608Z,2.43
2018-12-24T20:05:16.874Z,2.40
2018-12-24T20:08:07.326Z,2.60
2018-12-24T20:10:42.421Z,2.67
2018-12-24T20:13:13.453Z,2.60
2018-12-24T20:15:50.201Z,2.00
2018-12-24T20:18:22.176Z,2.40
2018-12-24T20:20:52.703Z,2.37
2018-12-24T20:23:25.323Z,2.80
2018-12-24T20:25:56.473Z,2.23
2018-12-24T20:28:29.464Z,3.13
2018-12-24T20:31:02.632Z,3.40
2018-12-24T20:33:33.725Z,7.20
2018-12-24T20:36:07.303Z,2.63
2018-12-24T20:38:46.774Z,2.43
2018-12-24T20:41:38.655Z,2.33
2018-12-24T20:44:12.416Z,2.83
2018-12-24T20:46:52.503Z,2.17
2018-12-24T20:49:25.882Z,2.60
2018-12-24T20:51:56.743Z,2.10
2018-12-24T20:54:29.653Z,2.17
2018-12-24T20:57:01.406Z,3.17
2018-12-24T20:59:39.464Z,2.73
2018-12-24T21:02:28.686Z,8.50
2018-12-24T21:05:17.894Z,2.20
2018-12-24T21:07:49.251Z,2.60
2018-12-24T21:10:22.113Z,2.60
2018-12-24T21:12:59.726Z,2.83
2018-12-24T21:15:34.866Z,2.13
2018-12-24T21:18:14.890Z,3.07
2018-12-24T21:20:42.810Z,2.33
2018-12-24T21:23:34.308Z,2.77
2018-12-24T21:26:11.497Z,2.63
2018-12-24T21:28:43.799Z,2.90
2018-12-24T21:31:17.779Z,3.30
2018-12-24T21:34:09.691Z,2.70
2018-12-24T21:36:41.718Z,2.40
2018-12-24T21:39:12.618Z,2.20
2018-12-24T21:41:47.863Z,2.30
2018-12-24T21:44:43.472Z,2.77
2018-12-24T21:47:14.038Z,2.47
2018-12-24T21:49:46.578Z,2.50
2018-12-24T21:52:19.156Z,2.80
2018-12-24T21:54:52.558Z,3.33
2018-12-24T21:57:30.215Z,4.80
2018-12-24T22:00:02.214Z,3.33
2018-12-24T22:02:33.070Z,7.70
2018-12-24T22:05:03.680Z,4.00
2018-12-24T22:07:34.606Z,4.50
2018-12-24T22:10:08.952Z,4.73
2018-12-24T22:12:43.508Z,3.47
2018-12-24T22:15:21.306Z,3.40
2018-12-24T22:17:55.670Z,3.50
2018-12-24T22:20:32.632Z,3.30
2018-12-24T22:23:21.014Z,3.20
2018-12-24T22:25:51.832Z,3.20
2018-12-24T22:28:25.212Z,3.90
2018-12-24T22:30:55.839Z,3.73
2018-12-24T22:33:29.655Z,3.90
2018-12-24T22:36:02.346Z,4.47
2018-12-24T22:38:34.429Z,3.77
2018-12-24T22:41:09.182Z,7.50
2018-12-24T22:43:47.257Z,4.07
2018-12-24T22:46:21.748Z,4.50
2018-12-24T22:48:55.483Z,3.13
2018-12-24T22:51:45.449Z,4.10
2018-12-24T22:54:32.714Z,2.97
2018-12-24T22:57:06.959Z,3.07
2018-12-24T22:59:41.145Z,3.83
2018-12-24T23:02:15.149Z,2.87
2018-12-24T23:04:52.810Z,2.80
2018-12-24T23:07:25.889Z,2.67
2018-12-24T23:10:01.476Z,3.17
2018-12-24T23:12:33.071Z,3.10
2018-12-24T23:15:04.214Z,3.47
2018-12-24T23:17:37.558Z,3.63
2018-12-24T23:20:08.392Z,2.97
2018-12-24T23:22:41.559Z,2.50
2018-12-24T23:25:18.949Z,2.53
2018-12-24T23:27:53.166Z,2.73
2018-12-24T23:30:26.310Z,2.83
2018-12-24T23:32:57.099Z,2.50
2018-12-24T23:35:28.368Z,3.10
2018-12-24T23:37:59.326Z,3.33
2018-12-24T23:40:31.928Z,2.70
2018-12-24T23:43:04.459Z,3.03
2018-12-24T23:45:37.559Z,3.10
2018-12-24T23:48:26.841Z,3.33
2018-12-24T23:51:02.365Z,2.70
2018-12-24T23:53:36.265Z,2.30
2018-12-24T23:56:07.273Z,2.20
2018-12-24T23:58:42.926Z,2.60
